Time;durP1;ratioP1;P1;durP2;ratioP2;P2;SDS_P1;SDS_P2;PMS_P1;PMS_P2;Temp;Humidity;BMP_temperature;BMP_pressure;BME280_temperature;BME280_humidity;BME280_pressure;Samples;Min_cycle;Max_cycle;Signal;HPM_P1;HPM_P2
2022/11/26 00:01:44;;;;;;;10.00;5.68;;;;;;;;;;6090991;23;20117;-83
2022/11/26 00:04:18;;;;;;;7.88;5.18;;;;;;;;;;6090096;23;20026;-82
2022/11/26 00:06:46;;;;;;;9.45;5.75;;;;;;;;;;6091099;23;20030;-83
2022/11/26 00:09:24;;;;;;;8.73;4.63;;;;;;;;;;6091334;23;20351;-82
2022/11/26 00:11:51;;;;;;;13.20;5.43;;;;;;;;;;6065661;23;20018;-82
2022/11/26 00:14:24;;;;;;;8.52;5.50;;;;;;;;;;6092315;23;20031;-82
2022/11/26 00:16:58;;;;;;;7.70;5.10;;;;;;;;;;6090982;23;20065;-83
2022/11/26 00:19:32;;;;;;;10.45;4.90;;;;;;;;;;6091816;23;20032;-82
2022/11/26 00:22:00;;;;;;;10.50;6.15;;;;;;;;;;6091021;23;20105;-82
2022/11/26 00:24:27;;;;;;;9.88;5.68;;;;;;;;;;6090914;23;20150;-83
2022/11/26 00:27:02;;;;;;;9.38;4.82;;;;;;;;;;6091497;23;20028;-83
2022/11/26 00:29:29;;;;;;;12.38;5.70;;;;;;;;;;6090342;23;20023;-82
2022/11/26 00:32:02;;;;;;;10.82;5.72;;;;;;;;;;6091494;23;20101;-82
2022/11/26 00:34:30;;;;;;;9.45;5.97;;;;;;;;;;6091253;23;20026;-83
2022/11/26 00:37:04;;;;;;;8.38;5.50;;;;;;;;;;6090385;23;20026;-83
2022/11/26 00:39:31;;;;;;;9.05;5.25;;;;;;;;;;6090960;23;20033;-82
2022/11/26 00:42:04;;;;;;;9.82;4.93;;;;;;;;;;6090884;23;20057;-82
2022/11/26 00:44:31;;;;;;;8.45;5.53;;;;;;;;;;6090771;23;20112;-83
2022/11/26 00:47:06;;;;;;;10.48;5.47;;;;;;;;;;6091120;23;20042;-82
2022/11/26 00:49:33;;;;;;;11.00;4.82;;;;;;;;;;6090148;23;20133;-82
2022/11/26 00:52:23;;;;;;;8.20;5.25;;;;;;;;;;6090767;23;20089;-83
2022/11/26 00:54:50;;;;;;;10.65;4.85;;;;;;;;;;6090201;23;20026;-83
2022/11/26 00:57:24;;;;;;;10.35;5.65;;;;;;;;;;6091107;23;20460;-83
2022/11/26 00:59:52;;;;;;;10.45;4.68;;;;;;;;;;6090385;23;20101;-83
2022/11/26 01:02:19;;;;;;;6.10;3.75;;;;;;;;;;6090484;23;20030;-82
2022/11/26 01:04:53;;;;;;;7.70;4.20;;;;;;;;;;6090486;23;20399;-83
2022/11/26 01:07:20;;;;;;;9.73;4.50;;;;;;;;;;6090315;23;20061;-83
2022/11/26 01:09:53;;;;;;;10.20;5.40;;;;;;;;;;6090450;23;20033;-83
2022/11/26 01:12:21;;;;;;;7.35;4.20;;;;;;;;;;6065600;23;20018;-83
2022/11/26 01:14:48;;;;;;;7.80;4.40;;;;;;;;;;6090443;23;20026;-82
2022/11/26 01:17:28;;;;;;;6.78;4.22;;;;;;;;;;6090746;23;20060;-82
2022/11/26 01:19:55;;;;;;;9.98;4.30;;;;;;;;;;6064994;23;20034;-82
2022/11/26 01:22:29;;;;;;;7.65;4.45;;;;;;;;;;6089327;23;20024;-82
2022/11/26 01:24:57;;;;;;;8.32;4.70;;;;;;;;;;6090221;23;20030;-81
2022/11/26 01:27:30;;;;;;;9.15;4.82;;;;;;;;;;6090485;23;20069;-81
2022/11/26 01:29:58;;;;;;;10.60;5.47;;;;;;;;;;6090798;23;20085;-82
2022/11/26 01:32:25;;;;;;;8.65;3.70;;;;;;;;;;6089484;23;20097;-83
2022/11/26 01:34:58;;;;;;;7.25;4.80;;;;;;;;;;6090183;23;20030;-83
2022/11/26 01:37:26;;;;;;;7.40;3.83;;;;;;;;;;6091199;23;20027;-82
2022/11/26 01:40:00;;;;;;;8.57;4.70;;;;;;;;;;6089916;23;20026;-82
2022/11/26 01:42:38;;;;;;;7.30;4.70;;;;;;;;;;6090709;23;20133;-83
2022/11/26 01:45:20;;;;;;;7.57;4.80;;;;;;;;;;6090400;23;20101;-83
2022/11/26 01:47:48;;;;;;;6.55;3.72;;;;;;;;;;6090023;23;20105;-83
2022/11/26 01:50:28;;;;;;;6.82;4.53;;;;;;;;;;6091234;23;20025;-82
2022/11/26 01:53:15;;;;;;;9.63;4.93;;;;;;;;;;6090502;23;20484;-82
2022/11/26 01:55:51;;;;;;;7.65;3.75;;;;;;;;;;6066562;23;20049;-82
2022/11/26 01:58:20;;;;;;;7.40;4.43;;;;;;;;;;6089556;23;20476;-82
2022/11/26 02:00:48;;;;;;;7.75;4.70;;;;;;;;;;6090196;23;20026;-82
2022/11/26 02:03:22;;;;;;;8.27;4.90;;;;;;;;;;6091307;23;20037;-83
2022/11/26 02:05:49;;;;;;;;;;;;;;;;;;6093101;23;20098;-83
2022/11/26 02:08:24;;;;;;;9.15;4.07;;;;;;;;;;6092046;23;19921;-83
2022/11/26 02:10:51;;;;;;;7.85;4.75;;;;;;;;;;6092248;23;20427;-82
2022/11/26 02:13:19;;;;;;;;;;;;;;;;;;6092907;23;20090;-82
2022/11/26 02:16:09;;;;;;;5.93;4.32;;;;;;;;;;6091877;23;19988;-82
2022/11/26 02:18:49;;;;;;;7.88;3.72;;;;;;;;;;6092127;23;20027;-82
2022/11/26 02:21:26;;;;;;;5.35;3.28;;;;;;;;;;6092653;23;20101;-82
2022/11/26 02:24:05;;;;;;;5.00;3.22;;;;;;;;;;6069290;23;20029;-82
2022/11/26 02:26:57;;;;;;;9.13;4.50;;;;;;;;;;6098875;23;20062;-82
2022/11/26 02:29:43;;;;;;;6.53;3.85;;;;;;;;;;6092975;23;20460;-82
2022/11/26 02:32:19;;;;;;;8.82;4.32;;;;;;;;;;6092689;23;20097;-82
2022/11/26 02:34:46;;;;;;;5.90;3.95;;;;;;;;;;6093043;23;20054;-82
2022/11/26 02:37:29;;;;;;;7.18;4.35;;;;;;;;;;6092636;23;20573;-81
2022/11/26 02:39:57;;;;;;;9.90;5.32;;;;;;;;;;6066151;23;20110;-82
2022/11/26 02:42:31;;;;;;;8.60;4.18;;;;;;;;;;6092904;23;20026;-82
2022/11/26 02:45:02;;;;;;;8.27;4.78;;;;;;;;;;6092003;23;20069;-83
2022/11/26 02:47:38;;;;;;;7.82;4.40;;;;;;;;;;6091590;23;20537;-82
2022/11/26 02:50:08;;;;;;;7.43;4.43;;;;;;;;;;6092082;23;20101;-82
2022/11/26 02:52:41;;;;;;;8.50;4.90;;;;;;;;;;6068485;23;20508;-83
2022/11/26 02:55:11;;;;;;;7.45;4.47;;;;;;;;;;6091896;23;20570;-83
2022/11/26 02:57:48;;;;;;;7.78;4.40;;;;;;;;;;6091747;23;20176;-83
2022/11/26 03:00:16;;;;;;;6.50;4.15;;;;;;;;;;6091597;23;20445;-83
2022/11/26 03:03:01;;;;;;;7.10;4.93;;;;;;;;;;6068501;23;20030;-82
2022/11/26 03:05:31;;;;;;;7.00;4.43;;;;;;;;;;6091718;23;20045;-83
2022/11/26 03:08:08;;;;;;;7.20;4.30;;;;;;;;;;6091058;23;20037;-83
2022/11/26 03:10:35;;;;;;;8.73;4.70;;;;;;;;;;6092105;23;20025;-82
2022/11/26 03:13:02;;;;;;;7.93;4.60;;;;;;;;;;6092414;23;20098;-82
2022/11/26 03:15:49;;;;;;;7.28;4.60;;;;;;;;;;6090597;23;20029;-82
2022/11/26 03:18:23;;;;;;;5.43;3.30;;;;;;;;;;6062870;23;20473;-83
2022/11/26 03:20:57;;;;;;;8.07;4.72;;;;;;;;;;6062927;23;20090;-83
2022/11/26 03:23:25;;;;;;;6.10;4.00;;;;;;;;;;6063136;23;20101;-83
2022/11/26 03:25:52;;;;;;;8.80;5.20;;;;;;;;;;6062200;23;20106;-83
2022/11/26 03:28:25;;;;;;;9.32;4.60;;;;;;;;;;6062686;23;20058;-83
2022/11/26 03:30:53;;;;;;;7.95;4.63;;;;;;;;;;6062584;23;20149;-81
2022/11/26 03:33:26;;;;;;;8.15;4.47;;;;;;;;;;6063198;23;20026;-82
2022/11/26 03:35:54;;;;;;;6.55;4.13;;;;;;;;;;6061372;23;20023;-82
2022/11/26 03:38:21;;;;;;;6.93;4.70;;;;;;;;;;6062683;23;20379;-83
2022/11/26 03:40:55;;;;;;;7.82;4.88;;;;;;;;;;6062765;23;20097;-83
2022/11/26 03:43:23;;;;;;;8.23;5.10;;;;;;;;;;6062675;23;20552;-82
2022/11/26 03:45:57;;;;;;;6.38;4.47;;;;;;;;;;6062319;23;20031;-82
2022/11/26 03:48:24;;;;;;;7.57;4.30;;;;;;;;;;6036326;23;20041;-82
2022/11/26 03:50:51;;;;;;;7.85;4.63;;;;;;;;;;6062443;23;20558;-82
2022/11/26 03:53:24;;;;;;;5.38;3.58;;;;;;;;;;6037819;23;20019;-82
2022/11/26 03:55:52;;;;;;;9.00;4.72;;;;;;;;;;6061283;23;20476;-83
2022/11/26 03:58:26;;;;;;;9.18;4.15;;;;;;;;;;6061730;23;20029;-82
2022/11/26 04:00:53;;;;;;;7.20;4.00;;;;;;;;;;6062099;23;20027;-82
2022/11/26 04:03:23;;;;;;;7.90;4.05;;;;;;;;;;6061615;23;20080;-82
2022/11/26 04:05:57;;;;;;;5.85;3.67;;;;;;;;;;6062360;23;20113;-82
2022/11/26 04:08:24;;;;;;;7.10;4.22;;;;;;;;;;6061517;23;20050;-83
2022/11/26 04:10:58;;;;;;;6.82;4.30;;;;;;;;;;6062930;23;20111;-83
2022/11/26 04:13:25;;;;;;;6.45;3.78;;;;;;;;;;6062000;23;20106;-84
2022/11/26 04:15:52;;;;;;;6.65;3.88;;;;;;;;;;6062596;23;20023;-82
2022/11/26 04:18:32;;;;;;;6.15;3.83;;;;;;;;;;6091869;23;20616;-82
2022/11/26 04:20:59;;;;;;;5.70;3.67;;;;;;;;;;6090400;23;20133;-82
2022/11/26 04:23:34;;;;;;;6.70;3.60;;;;;;;;;;6090934;23;20033;-83
2022/11/26 04:26:01;;;;;;;5.90;3.65;;;;;;;;;;6089564;23;20022;-83
2022/11/26 04:28:35;;;;;;;6.43;4.45;;;;;;;;;;6089788;23;20109;-82
2022/11/26 04:31:02;;;;;;;5.53;3.58;;;;;;;;;;6090702;23;20042;-82
2022/11/26 04:33:29;;;;;;;6.10;3.17;;;;;;;;;;6091612;23;20490;-82
2022/11/26 04:36:02;;;;;;;6.60;3.63;;;;;;;;;;6090790;23;20025;-83
2022/11/26 04:38:30;;;;;;;6.93;3.40;;;;;;;;;;6091589;23;20026;-82
2022/11/26 04:41:03;;;;;;;7.90;3.60;;;;;;;;;;6066789;23;20022;-82
2022/11/26 04:43:31;;;;;;;6.47;3.83;;;;;;;;;;6091154;23;20563;-82
2022/11/26 04:45:58;;;;;;;5.65;3.35;;;;;;;;;;6091343;23;20355;-83
2022/11/26 04:48:31;;;;;;;7.03;4.25;;;;;;;;;;6089653;23;20101;-82
2022/11/26 04:50:59;;;;;;;6.03;3.90;;;;;;;;;;6090911;23;20037;-83
2022/11/26 04:53:33;;;;;;;5.30;3.08;;;;;;;;;;6089916;23;20023;-82
2022/11/26 04:56:00;;;;;;;6.03;3.75;;;;;;;;;;6088938;23;20031;-82
2022/11/26 04:58:27;;;;;;;10.30;4.22;;;;;;;;;;6064903;23;20065;-82
2022/11/26 05:01:01;;;;;;;7.20;3.60;;;;;;;;;;6090417;23;20022;-82
2022/11/26 05:03:29;;;;;;;5.55;3.53;;;;;;;;;;6090902;23;20029;-84
2022/11/26 05:06:03;;;;;;;6.82;4.10;;;;;;;;;;6090811;23;20026;-82
2022/11/26 05:08:30;;;;;;;6.65;4.05;;;;;;;;;;6090029;23;20397;-82
2022/11/26 05:10:59;;;;;;;6.35;4.20;;;;;;;;;;6089961;23;20028;-82
2022/11/26 05:13:34;;;;;;;7.75;4.03;;;;;;;;;;6089324;23;20200;-83
2022/11/26 05:16:01;;;;;;;6.57;4.60;;;;;;;;;;6088845;23;20571;-83
2022/11/26 05:18:42;;;;;;;5.22;3.78;;;;;;;;;;6089742;23;20490;-83
2022/11/26 05:21:09;;;;;;;5.90;3.85;;;;;;;;;;6089685;23;20060;-82
2022/11/26 05:23:44;;;;;;;6.72;3.80;;;;;;;;;;6090797;23;20118;-82
2022/11/26 05:26:11;;;;;;;5.50;3.83;;;;;;;;;;6090525;23;20018;-83
2022/11/26 05:28:38;;;;;;;7.63;4.65;;;;;;;;;;6090361;23;20164;-83
2022/11/26 05:31:11;;;;;;;6.90;4.22;;;;;;;;;;6090008;23;20026;-83
2022/11/26 05:33:39;;;;;;;6.85;3.80;;;;;;;;;;6089518;23;20037;-83
2022/11/26 05:36:13;;;;;;;7.15;4.18;;;;;;;;;;6089951;23;20161;-82
2022/11/26 05:38:40;;;;;;;7.18;4.72;;;;;;;;;;6092025;23;20022;-83
2022/11/26 05:41:07;;;;;;;7.30;4.47;;;;;;;;;;6092100;23;20023;-83
2022/11/26 05:43:42;;;;;;;5.68;3.97;;;;;;;;;;6092451;23;20133;-82
2022/11/26 05:46:09;;;;;;;7.13;4.45;;;;;;;;;;6093029;23;20028;-82
2022/11/26 05:48:43;;;;;;;8.10;4.57;;;;;;;;;;6092239;23;20026;-82
2022/11/26 05:51:10;;;;;;;6.45;3.15;;;;;;;;;;6091864;23;20400;-82
2022/11/26 05:53:37;;;;;;;9.95;4.20;;;;;;;;;;6091798;23;20106;-83
2022/11/26 05:56:11;;;;;;;7.50;3.33;;;;;;;;;;6092260;23;20029;-82
2022/11/26 05:58:38;;;;;;;7.18;4.18;;;;;;;;;;6092101;23;20267;-83
2022/11/26 06:01:13;;;;;;;7.43;3.65;;;;;;;;;;6091175;23;20183;-83
2022/11/26 06:03:40;;;;;;;6.68;4.20;;;;;;;;;;6092444;23;20133;-82
2022/11/26 06:06:07;;;;;;;6.85;3.80;;;;;;;;;;6091910;23;20027;-82
2022/11/26 06:08:41;;;;;;;8.35;4.88;;;;;;;;;;6092147;23;20045;-82
2022/11/26 06:11:11;;;;;;;7.60;4.82;;;;;;;;;;6091718;23;20540;-83
2022/11/26 06:13:45;;;;;;;10.60;4.68;;;;;;;;;;6091863;23;20482;-82
2022/11/26 06:16:25;;;;;;;6.32;3.92;;;;;;;;;;6090399;23;20042;-82
2022/11/26 06:19:00;;;;;;;6.40;4.10;;;;;;;;;;6092183;23;20459;-82
2022/11/26 06:21:27;;;;;;;6.95;4.38;;;;;;;;;;6090710;23;20485;-82
2022/11/26 06:23:54;;;;;;;7.88;5.00;;;;;;;;;;6092180;23;20097;-82
2022/11/26 06:26:28;;;;;;;7.55;4.60;;;;;;;;;;6090854;23;20026;-82
2022/11/26 06:28:55;;;;;;;6.90;4.20;;;;;;;;;;6091847;23;20456;-81
2022/11/26 06:31:22;;;;;;;8.15;4.75;;;;;;;;;;6091190;23;20105;-82
2022/11/26 06:33:56;;;;;;;8.13;4.43;;;;;;;;;;6091456;23;20023;-82
2022/11/26 06:36:23;;;;;;;7.95;4.18;;;;;;;;;;6091486;23;20105;-82
2022/11/26 06:38:50;;;;;;;;;;;;;;;;;;6093033;23;20109;-82
2022/11/26 06:41:25;;;;;;;7.93;4.63;;;;;;;;;;6093227;23;19936;-83
2022/11/26 06:43:52;;;;;;;11.48;5.15;;;;;;;;;;6093147;23;20029;-82
2022/11/26 06:46:26;;;;;;;8.80;4.95;;;;;;;;;;6092263;23;20082;-82
2022/11/26 06:48:53;;;;;;;9.68;5.03;;;;;;;;;;6090624;23;20430;-85
2022/11/26 06:51:20;;;;;;;8.77;4.88;;;;;;;;;;6091708;23;20411;-82
2022/11/26 06:53:54;;;;;;;7.90;5.25;;;;;;;;;;6091382;23;20027;-82
2022/11/26 06:56:22;;;;;;;7.07;4.38;;;;;;;;;;6091433;23;20028;-82
2022/11/26 06:58:56;;;;;;;8.43;5.20;;;;;;;;;;6091375;23;20097;-82
2022/11/26 07:01:24;;;;;;;9.45;5.07;;;;;;;;;;6090475;23;20442;-82
2022/11/26 07:03:52;;;;;;;8.73;5.43;;;;;;;;;;6090698;23;20033;-82
2022/11/26 07:06:27;;;;;;;9.70;5.60;;;;;;;;;;6091761;23;20029;-82
2022/11/26 07:08:56;;;;;;;8.32;5.55;;;;;;;;;;6091349;23;20101;-83
2022/11/26 07:11:30;;;;;;;9.75;5.72;;;;;;;;;;6091389;23;20091;-82
2022/11/26 07:13:57;;;;;;;8.57;5.32;;;;;;;;;;6091120;23;20022;-82
2022/11/26 07:16:24;;;;;;;9.57;5.80;;;;;;;;;;6090724;23;20109;-82
2022/11/26 07:18:59;;;;;;;9.45;5.85;;;;;;;;;;6065800;23;20034;-83
2022/11/26 07:21:29;;;;;;;14.52;6.22;;;;;;;;;;6091792;23;20026;-83
2022/11/26 07:24:03;;;;;;;11.05;5.95;;;;;;;;;;6091259;23;20029;-84
2022/11/26 07:26:30;;;;;;;9.77;6.07;;;;;;;;;;6090918;23;20475;-83
2022/11/26 07:28:57;;;;;;;14.95;6.13;;;;;;;;;;6092044;23;20022;-84
2022/11/26 07:31:30;;;;;;;9.15;5.85;;;;;;;;;;6092456;23;20539;-83
2022/11/26 07:33:58;;;;;;;11.38;5.90;;;;;;;;;;6091311;23;20041;-84
2022/11/26 07:36:31;;;;;;;10.43;5.45;;;;;;;;;;6091899;23;20094;-84
2022/11/26 07:38:59;;;;;;;8.60;5.30;;;;;;;;;;6092110;23;20023;-83
2022/11/26 07:41:28;;;;;;;12.38;6.13;;;;;;;;;;6066803;23;20022;-84
2022/11/26 07:44:01;;;;;;;6.88;5.00;;;;;;;;;;6091085;23;20025;-84
2022/11/26 07:46:29;;;;;;;9.60;6.00;;;;;;;;;;6065394;23;20085;-83
2022/11/26 07:49:03;;;;;;;8.65;5.32;;;;;;;;;;6091895;23;20081;-84
2022/11/26 07:51:30;;;;;;;9.50;5.25;;;;;;;;;;6091091;23;20751;-83
2022/11/26 07:53:59;;;;;;;11.25;6.57;;;;;;;;;;6091396;23;20093;-83
2022/11/26 07:56:33;;;;;;;11.68;5.97;;;;;;;;;;6091686;23;20022;-83
2022/11/26 07:59:00;;;;;;;10.23;5.80;;;;;;;;;;6091056;23;20028;-83
2022/11/26 08:01:28;;;;;;;11.63;6.75;;;;;;;;;;6091146;23;20113;-83
2022/11/26 08:04:04;;;;;;;10.00;6.35;;;;;;;;;;6090609;23;20298;-83
2022/11/26 08:06:31;;;;;;;14.32;6.13;;;;;;;;;;6065684;23;20069;-84
2022/11/26 08:09:06;;;;;;;11.27;6.20;;;;;;;;;;6091698;23;20466;-83
2022/11/26 08:11:33;;;;;;;12.45;6.50;;;;;;;;;;6064508;23;20069;-83
2022/11/26 08:14:02;;;;;;;9.10;5.78;;;;;;;;;;6091646;23;20057;-83
2022/11/26 08:16:48;;;;;;;10.02;5.50;;;;;;;;;;6086058;23;20029;-83
2022/11/26 08:19:22;;;;;;;9.15;4.38;;;;;;;;;;6089808;23;20025;-84
2022/11/26 08:21:57;;;;;;;9.23;5.88;;;;;;;;;;6090856;23;20101;-83
2022/11/26 08:24:24;;;;;;;11.15;6.45;;;;;;;;;;6091446;23;20029;-84
2022/11/26 08:26:51;;;;;;;10.15;5.40;;;;;;;;;;6090889;23;20105;-84
2022/11/26 08:29:25;;;;;;;12.02;5.65;;;;;;;;;;6091202;23;20036;-84
2022/11/26 08:31:52;;;;;;;;;;;;;;;;;;6093103;23;20061;-84
2022/11/26 08:34:26;;;;;;;13.75;6.40;;;;;;;;;;6068096;23;19928;-84
2022/11/26 08:36:54;;;;;;;12.73;6.35;;;;;;;;;;6091025;23;20408;-84
2022/11/26 08:39:21;;;;;;;13.77;5.82;;;;;;;;;;6089996;23;20028;-84
2022/11/26 08:41:55;;;;;;;9.68;5.70;;;;;;;;;;6090483;23;20022;-83
2022/11/26 08:44:23;;;;;;;10.07;6.10;;;;;;;;;;6091538;23;20057;-84
2022/11/26 08:46:50;;;;;;;12.07;5.75;;;;;;;;;;6090602;23;20029;-84
2022/11/26 08:49:24;;;;;;;13.48;6.65;;;;;;;;;;6091362;23;20029;-84
2022/11/26 08:51:57;;;;;;;12.85;7.13;;;;;;;;;;6090074;23;20030;-84
2022/11/26 08:54:32;;;;;;;13.68;6.47;;;;;;;;;;6091294;23;20110;-84
2022/11/26 08:57:11;;;;;;;15.00;7.75;;;;;;;;;;6090503;23;20026;-84
2022/11/26 08:59:38;;;;;;;15.38;7.80;;;;;;;;;;6090436;23;20097;-85
2022/11/26 09:02:05;;;;;;;16.40;7.75;;;;;;;;;;6091222;23;20464;-84
2022/11/26 09:04:44;;;;;;;17.13;7.78;;;;;;;;;;6092278;23;20049;-85
2022/11/26 09:07:12;;;;;;;;;;;;;;;;;;6090931;23;20030;-84
2022/11/26 09:09:46;;;;;;;16.02;7.38;;;;;;;;;;6090318;23;19921;-84
2022/11/26 09:12:13;;;;;;;;;;;;;;;;;;6067117;23;20048;-85
2022/11/26 09:14:40;;;;;;;11.77;6.85;;;;;;;;;;6091271;23;19927;-84
2022/11/26 09:17:21;;;;;;;15.73;7.63;;;;;;;;;;6089148;23;20026;-83
2022/11/26 09:19:48;;;;;;;13.20;7.32;;;;;;;;;;6090655;23;20555;-83
2022/11/26 09:22:23;;;;;;;15.77;7.13;;;;;;;;;;6090993;23;20378;-84
2022/11/26 09:24:50;;;;;;;15.43;7.18;;;;;;;;;;6090438;23;20073;-84
2022/11/26 09:27:17;;;;;;;12.95;6.50;;;;;;;;;;6089719;23;20133;-84
2022/11/26 09:29:50;;;;;;;11.32;6.63;;;;;;;;;;6088914;23;20429;-83
2022/11/26 09:32:18;;;;;;;11.93;6.35;;;;;;;;;;6090330;23;20814;-84
2022/11/26 09:34:58;;;;;;;13.18;6.82;;;;;;;;;;6090810;23;20026;-84
2022/11/26 09:37:25;;;;;;;13.80;7.22;;;;;;;;;;6090498;23;20061;-84
2022/11/26 09:40:00;;;;;;;11.73;6.82;;;;;;;;;;6066291;23;20057;-84
2022/11/26 09:42:36;;;;;;;13.15;7.38;;;;;;;;;;6091447;23;20055;-85
2022/11/26 09:45:34;;;;;;;11.75;6.10;;;;;;;;;;6091052;23;20022;-84
2022/11/26 09:48:21;;;;;;;13.43;6.80;;;;;;;;;;6089940;23;20038;-84
2022/11/26 09:50:59;;;;;;;12.80;6.35;;;;;;;;;;6090650;23;20369;-85
2022/11/26 09:53:29;;;;;;;11.77;6.57;;;;;;;;;;6091206;23;20074;-83
2022/11/26 09:56:04;;;;;;;12.98;6.88;;;;;;;;;;6090287;23;20033;-84
2022/11/26 09:58:51;;;;;;;10.00;6.20;;;;;;;;;;6091042;23;20133;-84
2022/11/26 10:01:24;;;;;;;14.30;7.25;;;;;;;;;;6090764;23;20058;-84
2022/11/26 10:03:52;;;;;;;13.02;6.57;;;;;;;;;;6066808;23;20118;-84
2022/11/26 10:06:44;;;;;;;9.25;5.88;;;;;;;;;;6091513;23;20109;-83
2022/11/26 10:09:14;;;;;;;10.73;6.07;;;;;;;;;;6091688;23;20101;-84
2022/11/26 10:11:58;;;;;;;10.02;6.05;;;;;;;;;;6090337;23;20030;-84
2022/11/26 10:14:34;;;;;;;12.05;6.60;;;;;;;;;;6066370;23;20023;-83
2022/11/26 10:17:33;;;;;;;11.82;5.97;;;;;;;;;;6089949;23;20635;-84
2022/11/26 10:20:32;;;;;;;11.07;5.93;;;;;;;;;;6090133;23;20102;-84
2022/11/26 10:23:12;;;;;;;10.75;6.10;;;;;;;;;;6091558;23;20464;-84
2022/11/26 10:25:45;;;;;;;13.38;6.30;;;;;;;;;;6092938;23;20113;-84
2022/11/26 10:28:27;;;;;;;12.82;6.43;;;;;;;;;;6069221;23;20117;-85
2022/11/26 10:30:59;;;;;;;8.48;5.60;;;;;;;;;;6090843;23;20037;-84
2022/11/26 10:33:38;;;;;;;9.65;5.57;;;;;;;;;;6092591;23;20365;-84
2022/11/26 10:36:08;;;;;;;8.50;5.43;;;;;;;;;;6092467;23;20020;-84
2022/11/26 10:38:41;;;;;;;9.80;5.75;;;;;;;;;;6092028;23;20026;-84
2022/11/26 10:41:09;;;;;;;9.80;5.95;;;;;;;;;;6092823;23;20584;-84
2022/11/26 10:43:36;;;;;;;12.60;6.72;;;;;;;;;;6092502;23;20476;-84
2022/11/26 10:46:28;;;;;;;12.90;6.88;;;;;;;;;;6091381;23;20023;-84
2022/11/26 10:49:14;;;;;;;10.30;5.88;;;;;;;;;;6092060;23;20022;-84
2022/11/26 10:51:50;;;;;;;11.55;6.65;;;;;;;;;;6091010;23;20084;-83
2022/11/26 10:54:25;;;;;;;11.45;6.63;;;;;;;;;;6092695;23;20050;-81
2022/11/26 10:57:18;;;;;;;10.95;6.40;;;;;;;;;;6092743;23;20409;-81
2022/11/26 10:59:50;;;;;;;11.02;5.50;;;;;;;;;;6093659;23;20025;-84
2022/11/26 11:02:32;;;;;;;13.90;6.78;;;;;;;;;;6092985;23;20023;-84
2022/11/26 11:05:02;;;;;;;13.57;6.85;;;;;;;;;;6091442;23;20091;-85
2022/11/26 11:07:36;;;;;;;12.38;6.30;;;;;;;;;;6092929;23;20385;-85
2022/11/26 11:10:03;;;;;;;10.57;5.35;;;;;;;;;;6090907;23;20029;-84
2022/11/26 11:12:42;;;;;;;11.60;6.50;;;;;;;;;;6068233;23;20110;-84
2022/11/26 11:15:21;;;;;;;11.77;6.50;;;;;;;;;;6092166;23;20030;-83
2022/11/26 11:18:26;;;;;;;9.63;6.30;;;;;;;;;;6086790;23;20334;-83
2022/11/26 11:20:59;;;;;;;9.85;6.07;;;;;;;;;;6087899;23;20523;-85
2022/11/26 11:23:37;;;;;;;11.20;6.90;;;;;;;;;;6086178;23;20026;-82
2022/11/26 11:26:25;;;;;;;10.93;6.07;;;;;;;;;;6090824;23;20022;-82
2022/11/26 11:28:59;;;;;;;15.15;7.30;;;;;;;;;;6091163;23;20527;-82
2022/11/26 11:31:27;;;;;;;13.25;7.05;;;;;;;;;;6091578;23;20033;-82
2022/11/26 11:34:19;;;;;;;14.05;7.53;;;;;;;;;;6086669;23;20041;-85
2022/11/26 11:36:59;;;;;;;15.27;6.28;;;;;;;;;;6086992;23;20122;-81
2022/11/26 11:39:39;;;;;;;14.98;7.63;;;;;;;;;;6086040;23;20052;-82
2022/11/26 11:42:14;;;;;;;10.40;7.03;;;;;;;;;;6091751;23;20061;-82
2022/11/26 11:44:48;;;;;;;16.88;7.43;;;;;;;;;;6091485;23;20097;-82
2022/11/26 11:47:31;;;;;;;15.85;7.70;;;;;;;;;;6086510;23;20037;-82
2022/11/26 11:50:05;;;;;;;14.55;8.23;;;;;;;;;;6088903;23;20087;-82
2022/11/26 11:52:43;;;;;;;12.15;6.75;;;;;;;;;;6087383;23;20117;-82
2022/11/26 11:55:18;;;;;;;12.95;6.95;;;;;;;;;;6091623;23;20026;-82
2022/11/26 11:57:55;;;;;;;12.23;7.25;;;;;;;;;;6087243;23;20105;-82
2022/11/26 12:00:40;;;;;;;16.88;7.35;;;;;;;;;;6089524;23;20201;-82
2022/11/26 12:03:22;;;;;;;13.88;7.03;;;;;;;;;;6064445;23;20478;-82
2022/11/26 12:05:58;;;;;;;12.55;7.00;;;;;;;;;;6092646;23;20033;-83
2022/11/26 12:08:36;;;;;;;12.80;7.03;;;;;;;;;;6092230;23;20109;-82
2022/11/26 12:11:15;;;;;;;16.05;8.20;;;;;;;;;;6085683;23;20026;-82
2022/11/26 12:13:46;;;;;;;15.85;8.63;;;;;;;;;;6091199;23;20101;-81
2022/11/26 12:16:22;;;;;;;15.73;8.80;;;;;;;;;;6090975;23;20026;-82
2022/11/26 12:19:05;;;;;;;18.15;8.68;;;;;;;;;;6088523;23;20026;-82
2022/11/26 12:21:42;;;;;;;15.95;8.68;;;;;;;;;;6091486;23;20340;-82
2022/11/26 12:24:25;;;;;;;16.63;8.68;;;;;;;;;;6091761;23;20060;-82
2022/11/26 12:26:54;;;;;;;20.95;8.70;;;;;;;;;;6091269;23;20110;-82
2022/11/26 12:29:32;;;;;;;13.10;8.40;;;;;;;;;;6090797;23;20069;-82
2022/11/26 12:32:08;;;;;;;18.02;8.27;;;;;;;;;;6067565;23;20052;-84
2022/11/26 12:34:46;;;;;;;17.88;8.55;;;;;;;;;;6091530;23;20397;-82
2022/11/26 12:37:26;;;;;;;22.55;8.95;;;;;;;;;;6089529;23;20026;-82
2022/11/26 12:40:14;;;;;;;16.15;8.25;;;;;;;;;;6090466;23;20102;-82
2022/11/26 12:43:00;;;;;;;18.02;8.18;;;;;;;;;;6090805;23;20026;-82
2022/11/26 12:45:43;;;;;;;17.00;8.85;;;;;;;;;;6090587;23;20121;-82
2022/11/26 12:48:18;;;;;;;18.10;9.15;;;;;;;;;;6091720;23;20018;-82
2022/11/26 12:50:56;;;;;;;15.27;9.43;;;;;;;;;;6090010;23;20069;-82
2022/11/26 12:53:26;;;;;;;15.55;8.85;;;;;;;;;;6090598;23;20023;-82
2022/11/26 12:56:03;;;;;;;13.52;8.45;;;;;;;;;;6091538;23;20412;-82
2022/11/26 12:58:43;;;;;;;19.08;9.60;;;;;;;;;;6091983;23;20022;-81
2022/11/26 13:01:16;;;;;;;23.58;11.13;;;;;;;;;;6091353;23;20065;-83
2022/11/26 13:03:44;;;;;;;19.58;10.38;;;;;;;;;;6090909;23;20070;-82
2022/11/26 13:06:14;;;;;;;20.55;10.00;;;;;;;;;;6090561;23;20026;-82
2022/11/26 13:09:03;;;;;;;17.58;10.25;;;;;;;;;;6091519;23;20023;-82
2022/11/26 13:11:39;;;;;;;13.13;8.30;;;;;;;;;;6090306;23;20177;-82
2022/11/26 13:14:16;;;;;;;16.27;8.95;;;;;;;;;;6091476;23;20101;-81
2022/11/26 13:16:43;;;;;;;21.35;9.00;;;;;;;;;;6090281;23;20033;-83
2022/11/26 13:19:20;;;;;;;17.83;9.73;;;;;;;;;;6091215;23;20027;-82
2022/11/26 13:22:01;;;;;;;17.30;9.27;;;;;;;;;;6089610;23;20118;-82
2022/11/26 13:24:35;;;;;;;17.05;9.15;;;;;;;;;;6090048;23;20093;-82
2022/11/26 13:27:21;;;;;;;14.90;8.63;;;;;;;;;;6116313;23;20465;-46
2022/11/26 13:29:55;;;;;;;15.52;8.07;;;;;;;;;;6118209;23;20032;-47
2022/11/26 13:32:35;;;;;;;15.57;8.80;;;;;;;;;;6118858;23;20105;-47
2022/11/26 13:35:27;;;;;;;17.52;8.85;;;;;;;;;;6114717;23;20406;-46
2022/11/26 13:38:07;;;;;;;16.73;8.77;;;;;;;;;;6117602;23;20446;-47
2022/11/26 13:40:56;;;;;;;15.93;8.25;;;;;;;;;;6119452;23;20026;-46
2022/11/26 13:43:43;;;;;;;15.85;9.20;;;;;;;;;;6117999;23;20037;-45
2022/11/26 13:46:19;;;;;;;17.30;8.95;;;;;;;;;;6119877;23;20102;-62
2022/11/26 13:48:54;;;;;;;20.23;8.40;;;;;;;;;;6119717;23;20081;-62
2022/11/26 13:51:32;;;;;;;17.35;9.55;;;;;;;;;;6118477;23;20101;-62
2022/11/26 13:54:09;;;;;;;17.35;8.98;;;;;;;;;;6119181;23;20498;-62
2022/11/26 13:56:37;;;;;;;13.57;8.15;;;;;;;;;;6118703;23;20026;-61
2022/11/26 13:59:16;;;;;;;16.80;9.18;;;;;;;;;;6117549;23;20779;-62
2022/11/26 14:01:44;;;;;;;12.95;8.45;;;;;;;;;;6118361;23;20033;-60
2022/11/26 14:04:23;;;;;;;17.13;8.35;;;;;;;;;;6119267;23;20468;-61
2022/11/26 14:07:06;;;;;;;14.25;9.35;;;;;;;;;;6119849;23;20105;-62
2022/11/26 14:09:45;;;;;;;15.05;8.65;;;;;;;;;;6119340;23;20456;-62
2022/11/26 14:12:46;;;;;;;16.75;9.35;;;;;;;;;;6119776;23;20025;-61
2022/11/26 14:15:44;;;;;;;16.17;8.80;;;;;;;;;;6118371;23;20022;-62
2022/11/26 14:18:13;;;;;;;17.83;9.18;;;;;;;;;;6118051;23;20542;-62
2022/11/26 14:20:59;;;;;;;18.60;10.35;;;;;;;;;;6120709;23;20494;-47
2022/11/26 14:23:42;;;;;;;16.00;8.85;;;;;;;;;;6119914;23;20026;-63
2022/11/26 14:26:25;;;;;;;15.05;9.77;;;;;;;;;;6120874;23;20097;-64
2022/11/26 14:29:08;;;;;;;17.00;8.95;;;;;;;;;;6118924;23;20104;-63
2022/11/26 14:31:45;;;;;;;18.80;10.23;;;;;;;;;;6119015;23;20104;-64
2022/11/26 14:34:24;;;;;;;22.58;9.90;;;;;;;;;;6120910;23;20033;-64
2022/11/26 14:36:58;;;;;;;16.88;8.77;;;;;;;;;;6119640;23;20104;-64
2022/11/26 14:39:26;;;;;;;17.95;10.15;;;;;;;;;;6118342;23;20065;-64
2022/11/26 14:41:59;;;;;;;15.30;8.65;;;;;;;;;;6122187;23;20037;-63
2022/11/26 14:44:32;;;;;;;18.35;8.98;;;;;;;;;;6120659;23;20026;-64
2022/11/26 14:47:09;;;;;;;16.40;8.43;;;;;;;;;;6119082;23;20050;-64
2022/11/26 14:49:39;;;;;;;15.70;9.23;;;;;;;;;;6120251;23;20101;-62
2022/11/26 14:52:21;;;;;;;17.42;8.90;;;;;;;;;;6116145;23;20032;-64
2022/11/26 14:54:51;;;;;;;15.75;8.23;;;;;;;;;;6114019;23;20105;-66
2022/11/26 14:57:40;;;;;;;14.77;8.55;;;;;;;;;;6116981;23;20891;-66
2022/11/26 15:00:21;;;;;;;18.35;8.43;;;;;;;;;;6120515;23;20551;-61
2022/11/26 15:02:55;;;;;;;16.20;8.10;;;;;;;;;;6117897;23;20097;-66
2022/11/26 15:05:27;;;;;;;21.38;8.93;;;;;;;;;;6118997;23;20077;-65
2022/11/26 15:07:57;;;;;;;14.13;8.77;;;;;;;;;;6118720;23;20060;-65
2022/11/26 15:10:45;;;;;;;12.75;8.27;;;;;;;;;;6121025;23;20100;-65
2022/11/26 15:13:16;;;;;;;16.35;8.02;;;;;;;;;;6118143;23;20101;-65
2022/11/26 15:15:51;;;;;;;14.65;8.30;;;;;;;;;;6120544;23;20018;-65
2022/11/26 15:18:20;;;;;;;14.45;8.40;;;;;;;;;;6119989;23;20029;-52